@NikonAW100/ver1.0/wgs84 $GPGGA,214520.000,3748.2642,N,12226.7331,W,1,05,2.5,11.3,M,-25.3,M,,0000*5F $GPRMC,214520.000,A,3748.2642,N,12226.7331,W,0.55,95.09,150212,,,A*45 $GPGGA,214619.000,3748.2838,N,12226.7630,W,1,07,1.3,-37.8,M,-25.3,M,,0000*74 $GPRMC,214619.000,A,3748.2838,N,12226.7630,W,0.66,197.59,150212,,,A*7D $GPGGA,214719.000,3748.2637,N,12226.8031,W,1,07,1.3,33.4,M,-25.3,M,,0000*59 $GPRMC,214719.000,A,3748.2637,N,12226.8031,W,0.74,196.50,150212,,,A*7E $GPGGA,214820.000,3748.2480,N,12226.8323,W,1,07,1.3,11.5,M,-25.3,M,,0000*53 $GPRMC,214820.000,A,3748.2480,N,12226.8323,W,1.36,233.69,150212,,,A*74 $GPGGA,215019.000,3748.2316,N,12226.8899,W,1,07,1.3,38.8,M,-25.3,M,,0000*54 $GPRMC,215019.000,A,3748.2316,N,12226.8899,W,0.76,179.62,150212,,,A*76 $GPGGA,215119.000,3748.2128,N,12226.8373,W,1,06,1.4,13.0,M,-25.3,M,,0000*52 $GPRMC,215119.000,A,3748.2128,N,12226.8373,W,0.02,242.27,150212,,,A*7E $GPGGA,215219.000,3748.1908,N,12226.8572,W,1,07,1.3,-1.5,M,-25.3,M,,0000*42 $GPRMC,215219.000,A,3748.1908,N,12226.8572,W,0.47,239.59,150212,,,A*77 $GPGGA,215319.000,3748.1462,N,12226.8463,W,1,07,1.3,92.1,M,-25.3,M,,0000*50 $GPRMC,215319.000,A,3748.1462,N,12226.8463,W,1.35,108.98,150212,,,A*7E $GPGGA,215419.000,3748.1806,N,12226.8408,W,1,07,1.3,-1.4,M,-25.3,M,,0000*46 $GPRMC,215419.000,A,3748.1806,N,12226.8408,W,2.67,173.75,150212,,,A*71 $GPGGA,215519.000,3748.1479,N,12226.8240,W,1,07,1.3,9.1,M,-25.3,M,,0000*69 $GPRMC,215519.000,A,3748.1479,N,12226.8240,W,0.24,260.36,150212,,,A*7D $GPGGA,215619.000,3748.0302,N,12226.8560,W,1,07,1.3,454.3,M,-25.3,M,,0000*6B $GPRMC,215619.000,A,3748.0302,N,12226.8560,W,0.03,116.23,150212,,,A*72 $GPGGA,215719.000,3748.1421,N,12226.8225,W,1,07,1.3,-26.4,M,-25.3,M,,0000*70 $GPRMC,215719.000,A,3748.1421,N,12226.8225,W,2.53,219.82,150212,,,A*72 $GPGGA,215819.000,3748.1350,N,12226.8437,W,1,07,1.3,-82.6,M,-25.3,M,,0000*77 $GPRMC,215819.000,A,3748.1350,N,12226.8437,W,0.32,292.34,150212,,,A*72 $GPGGA,215919.000,3748.1193,N,12226.8515,W,1,07,1.3,-0.3,M,-25.3,M,,0000*45 $GPRMC,215919.000,A,3748.1193,N,12226.8515,W,0.62,0.00,150212,,,A*74 $GPGGA,220019.000,3748.1220,N,12226.8706,W,1,06,1.6,32.6,M,-25.3,M,,0000*5C $GPRMC,220019.000,A,3748.1220,N,12226.8706,W,0.35,329.37,150212,,,A*7E $GPGGA,220119.000,3748.1188,N,12226.8702,W,1,06,1.6,-177.4,M,-25.3,M,,0000*47 $GPRMC,220119.000,A,3748.1188,N,12226.8702,W,1.05,200.07,150212,,,A*71 $GPGGA,220219.000,3748.1659,N,12226.9082,W,1,07,1.3,91.9,M,-25.3,M,,0000*5C $GPRMC,220219.000,A,3748.1659,N,12226.9082,W,0.59,164.47,150212,,,A*7A $GPGGA,220319.000,3748.1018,N,12226.9578,W,1,07,1.3,-149.3,M,-25.3,M,,0000*4D $GPRMC,220319.000,A,3748.1018,N,12226.9578,W,2.47,48.94,150212,,,A*44 $GPGGA,220419.000,3748.1757,N,12226.9356,W,1,04,2.8,164.9,M,-25.3,M,,0000*6F $GPRMC,220419.000,A,3748.1757,N,12226.9356,W,0.85,34.95,150212,,,A*43 $GPGGA,220518.000,3748.1957,N,12226.9353,W,1,07,1.3,-5.0,M,-25.3,M,,0000*4D $GPRMC,220518.000,A,3748.1957,N,12226.9353,W,0.88,160.70,150212,,,A*7E $GPGGA,220618.000,3748.2366,N,12226.8898,W,1,06,1.6,36.2,M,-25.3,M,,0000*53 $GPRMC,220618.000,A,3748.2366,N,12226.8898,W,1.98,46.13,150212,,,A*4B $GPGGA,220718.000,3748.2001,N,12226.8960,W,1,07,1.3,-40.0,M,-25.3,M,,0000*7C $GPRMC,220718.000,A,3748.2001,N,12226.8960,W,3.12,270.45,150212,,,A*7A $GPGGA,220818.000,3748.2721,N,12226.9086,W,1,07,1.3,-28.7,M,-25.3,M,,0000*7F $GPRMC,220818.000,A,3748.2721,N,12226.9086,W,1.02,2.53,150212,,,A*73 $GPGGA,220920.000,3748.2859,N,12226.8906,W,1,06,1.6,-96.2,M,-25.3,M,,0000*71 $GPRMC,220920.000,A,3748.2859,N,12226.8906,W,0.72,323.75,150212,,,A*7B $GPGGA,221020.000,3748.3112,N,12226.8833,W,1,06,1.6,2.4,M,-25.3,M,,0000*6F $GPRMC,221020.000,A,3748.3112,N,12226.8833,W,2.53,32.71,150212,,,A*45 $GPGGA,221120.000,3748.3227,N,12226.8189,W,1,07,1.3,54.6,M,-25.3,M,,0000*56 $GPRMC,221120.000,A,3748.3227,N,12226.8189,W,2.75,82.33,150212,,,A*40 $GPGGA,221220.000,3748.3079,N,12226.7891,W,1,07,1.3,71.3,M,-25.3,M,,0000*51 $GPRMC,221220.000,A,3748.3079,N,12226.7891,W,0.00,39.78,150212,,,A*4A $GPGGA,221320.000,3748.3235,N,12226.7931,W,1,07,1.3,-12.7,M,-25.3,M,,0000*7D $GPRMC,221320.000,A,3748.3235,N,12226.7931,W,2.62,96.37,150212,,,A*42 $GPGGA,221420.000,3748.3322,N,12226.6983,W,1,07,1.3,60.0,M,-25.3,M,,0000*5A $GPRMC,221420.000,A,3748.3322,N,12226.6983,W,3.31,85.53,150212,,,A*4D $GPGGA,221520.000,3748.3493,N,12226.6847,W,1,07,1.3,-60.6,M,-25.3,M,,0000*74 $GPRMC,221520.000,A,3748.3493,N,12226.6847,W,0.28,78.31,150212,,,A*45 $GPGGA,221620.000,3748.3472,N,12226.6329,W,1,07,1.3,49.9,M,-25.3,M,,0000*52 $GPRMC,221620.000,A,3748.3472,N,12226.6329,W,1.41,86.30,150212,,,A*44 $GPGGA,221720.000,3748.3522,N,12226.5971,W,1,07,1.3,60.6,M,-25.3,M,,0000*57 $GPRMC,221720.000,A,3748.3522,N,12226.5971,W,1.98,98.83,150212,,,A*46 $GPGGA,221820.000,3748.3633,N,12226.5492,W,1,07,1.3,53.6,M,-25.3,M,,0000*5B $GPRMC,221820.000,A,3748.3633,N,12226.5492,W,1.78,71.60,150212,,,A*4E $GPGGA,221920.000,3748.3872,N,12226.5536,W,1,07,1.3,13.3,M,-25.3,M,,0000*5F $GPRMC,221920.000,A,3748.3872,N,12226.5536,W,2.43,1.37,150212,,,A*75 $GPGGA,222021.000,3748.4048,N,12226.5258,W,1,07,1.3,8.5,M,-25.3,M,,0000*61 $GPRMC,222021.000,A,3748.4048,N,12226.5258,W,1.91,36.26,150212,,,A*4F $GPGGA,222120.000,3748.4124,N,12226.4684,W,1,07,1.3,20.3,M,-25.3,M,,0000*52 $GPRMC,222120.000,A,3748.4124,N,12226.4684,W,2.01,81.13,150212,,,A*40 $GPGGA,222220.000,3748.4105,N,12226.4306,W,1,07,1.4,15.3,M,-25.3,M,,0000*5C $GPRMC,222220.000,A,3748.4105,N,12226.4306,W,2.11,89.55,150212,,,A*44 $GPGGA,222320.000,3748.4177,N,12226.4222,W,1,07,1.4,-62.7,M,-25.3,M,,0000*76 $GPRMC,222320.000,A,3748.4177,N,12226.4222,W,0.00,0.00,150212,,,A*74 $GPGGA,222420.000,3748.4087,N,12226.4166,W,1,07,1.4,-22.7,M,-25.3,M,,0000*78 $GPRMC,222420.000,A,3748.4087,N,12226.4166,W,0.00,0.00,150212,,,A*7E $GPGGA,222520.000,3748.4223,N,12226.3741,W,1,07,1.4,7.0,M,-25.3,M,,0000*6C $GPRMC,222520.000,A,3748.4223,N,12226.3741,W,1.53,122.76,150212,,,A*70 $GPGGA,222620.000,3748.4248,N,12226.3274,W,1,07,1.4,20.4,M,-25.3,M,,0000*50 $GPRMC,222620.000,A,3748.4248,N,12226.3274,W,2.24,106.81,150212,,,A*70 $GPGGA,222718.000,3748.4565,N,12226.0839,W,1,05,1.8,268.1,M,-25.3,M,,0000*67 $GPRMC,222718.000,A,3748.4565,N,12226.0839,W,2.78,83.11,150212,,,A*4E $GPGGA,222818.000,3748.4538,N,12225.9739,W,1,05,1.7,365.0,M,-25.3,M,,0000*67 $GPRMC,222818.000,A,3748.4538,N,12225.9739,W,2.63,66.43,150212,,,A*4A $GPGGA,222918.000,3748.4606,N,12225.9612,W,1,05,1.8,305.5,M,-25.2,M,,0000*6D $GPRMC,222918.000,A,3748.4606,N,12225.9612,W,2.30,84.91,150212,,,A*48 $GPGGA,223018.000,3748.4545,N,12226.1498,W,1,07,1.4,10.8,M,-25.2,M,,0000*5E $GPRMC,223018.000,A,3748.4545,N,12226.1498,W,1.03,60.58,150212,,,A*43 $GPGGA,223118.000,3748.4508,N,12226.0656,W,1,07,1.5,110.1,M,-25.2,M,,0000*6E $GPRMC,223118.000,A,3748.4508,N,12226.0656,W,0.00,84.04,150212,,,A*4B $GPGGA,223218.000,3748.4433,N,12226.1034,W,1,07,1.5,64.5,M,-25.2,M,,0000*51 $GPRMC,223218.000,A,3748.4433,N,12226.1034,W,2.62,89.75,150212,,,A*4F $GPGGA,223318.000,3748.4155,N,12226.0767,W,1,07,1.5,10.8,M,-25.2,M,,0000*5B $GPRMC,223318.000,A,3748.4155,N,12226.0767,W,1.86,131.51,150212,,,A*76 $GPGGA,223418.000,3748.4024,N,12226.0521,W,1,07,1.5,-18.8,M,-25.2,M,,0000*7E $GPRMC,223418.000,A,3748.4024,N,12226.0521,W,2.85,171.48,150212,,,A*7A $GPGGA,223518.000,3748.3627,N,12226.0482,W,1,07,1.5,-2.5,M,-25.2,M,,0000*43 $GPRMC,223518.000,A,3748.3627,N,12226.0482,W,1.82,173.15,150212,,,A*7F $GPGGA,223618.000,3748.3299,N,12226.0486,W,1,07,1.5,-80.1,M,-25.3,M,,0000*7A $GPRMC,223618.000,A,3748.3299,N,12226.0486,W,1.52,136.55,150212,,,A*71 $GPGGA,223721.000,3748.3375,N,12225.9833,W,1,07,1.5,6.0,M,-25.3,M,,0000*68 $GPRMC,223721.000,A,3748.3375,N,12225.9833,W,2.70,77.79,150212,,,A*48 $GPGGA,223821.000,3748.3576,N,12225.9566,W,1,07,1.5,-20.1,M,-25.2,M,,0000*76 $GPRMC,223821.000,A,3748.3576,N,12225.9566,W,2.11,65.65,150212,,,A*46 $GPGGA,223921.000,3748.3962,N,12225.8992,W,1,07,1.5,79.6,M,-25.2,M,,0000*5E $GPRMC,223921.000,A,3748.3962,N,12225.8992,W,2.71,9.27,150212,,,A*72 $GPGGA,224021.000,3748.4076,N,12225.5322,W,1,04,4.5,383.5,M,-25.2,M,,0000*64 $GPRMC,224021.000,A,3748.4076,N,12225.5322,W,2.71,72.09,150212,,,A*4B $GPGGA,225858.000,3748.2802,N,12225.9387,W,1,07,1.7,488.6,M,-25.2,M,,0000*66 $GPRMC,225858.000,A,3748.2802,N,12225.9387,W,1.25,192.07,150212,,,A*71 $GPGGA,225958.000,3748.3545,N,12225.9616,W,1,07,1.7,-10.4,M,-25.2,M,,0000*7F $GPRMC,225958.000,A,3748.3545,N,12225.9616,W,1.27,165.32,150212,,,A*7E $GPGGA,230058.000,3748.3468,N,12225.9971,W,1,07,1.7,-21.4,M,-25.2,M,,0000*70 $GPRMC,230058.000,A,3748.3468,N,12225.9971,W,1.82,184.62,150212,,,A*76 $GPGGA,230158.000,3748.3089,N,12226.0173,W,1,07,1.7,31.8,M,-25.2,M,,0000*5A $GPRMC,230158.000,A,3748.3089,N,12226.0173,W,1.71,166.58,150212,,,A*75 $GPGGA,230258.000,3748.2832,N,12226.0297,W,1,07,1.7,39.8,M,-25.3,M,,0000*50 $GPRMC,230258.000,A,3748.2832,N,12226.0297,W,0.17,156.55,150212,,,A*79 $GPGGA,230358.000,3748.3203,N,12226.0550,W,1,07,1.7,30.7,M,-25.3,M,,0000*52 $GPRMC,230358.000,A,3748.3203,N,12226.0550,W,1.53,203.59,150212,,,A*73 $GPGGA,230458.000,3748.3624,N,12226.0905,W,1,07,1.7,4.6,M,-25.2,M,,0000*6F $GPRMC,230458.000,A,3748.3624,N,12226.0905,W,1.08,142.43,150212,,,A*7A $GPGGA,230558.000,3748.3421,N,12226.1599,W,1,07,1.7,170.8,M,-25.2,M,,0000*6D $GPRMC,230558.000,A,3748.3421,N,12226.1599,W,1.96,244.02,150212,,,A*73 $GPGGA,230659.000,3748.3273,N,12226.1637,W,1,05,2.3,63.0,M,-25.3,M,,0000*56 $GPRMC,230659.000,A,3748.3273,N,12226.1637,W,1.38,274.88,150212,,,A*72 $GPGGA,230759.000,3748.4187,N,12226.3269,W,1,07,1.7,-238.6,M,-25.3,M,,0000*47 $GPRMC,230759.000,A,3748.4187,N,12226.3269,W,2.06,150.09,150212,,,A*73 $GPGGA,230859.000,3748.4545,N,12226.1711,W,1,06,1.9,264.0,M,-25.3,M,,0000*67 $GPRMC,230859.000,A,3748.4545,N,12226.1711,W,1.23,97.78,150212,,,A*46 $GPGGA,230959.000,3748.3764,N,12226.2835,W,1,05,3.6,8.1,M,-25.2,M,,0000*6C $GPRMC,230959.000,A,3748.3764,N,12226.2835,W,2.15,248.72,150212,,,A*77 $GPGGA,231059.000,3748.3759,N,12226.3446,W,1,04,4.8,15.0,M,-25.3,M,,0000*57 $GPRMC,231059.000,A,3748.3759,N,12226.3446,W,2.09,215.00,150212,,,A*78 $GPGGA,231159.000,3748.3729,N,12226.3940,W,1,06,1.7,-20.6,M,-25.3,M,,0000*7F $GPRMC,231159.000,A,3748.3729,N,12226.3940,W,2.24,150.04,150212,,,A*7C $GPGGA,231259.000,3748.3463,N,12226.4141,W,1,05,4.0,25.9,M,-25.3,M,,0000*59 $GPRMC,231259.000,A,3748.3463,N,12226.4141,W,4.16,313.81,150212,,,A*73 $GPGGA,231359.000,3748.3538,N,12226.4778,W,1,05,4.1,-3.3,M,-25.3,M,,0000*49 $GPRMC,231359.000,A,3748.3538,N,12226.4778,W,2.14,161.52,150212,,,A*7C $GPGGA,231459.000,3748.3317,N,12226.5302,W,1,06,1.7,45.9,M,-25.3,M,,0000*58 $GPRMC,231459.000,A,3748.3317,N,12226.5302,W,2.17,173.43,150212,,,A*78 $GPGGA,231559.000,3748.3304,N,12226.5740,W,1,04,6.0,22.8,M,-25.3,M,,0000*5B $GPRMC,231559.000,A,3748.3304,N,12226.5740,W,3.04,306.22,150212,,,A*7D $GPGGA,231659.000,3748.2588,N,12226.6007,W,1,04,4.0,229.5,M,-25.3,M,,0000*6A $GPRMC,231659.000,A,3748.2588,N,12226.6007,W,3.41,309.31,150212,,,A*76 $GPGGA,231758.000,3748.3961,N,12226.6504,W,1,06,1.7,50.3,M,-25.3,M,,0000*5C $GPRMC,231758.000,A,3748.3961,N,12226.6504,W,0.83,139.17,150212,,,A*72 $GPGGA,231858.000,3748.3416,N,12226.7001,W,1,05,2.3,-152.2,M,-25.3,M,,0000*44 $GPRMC,231858.000,A,3748.3416,N,12226.7001,W,2.39,130.18,150212,,,A*74